Chester, Oklahoma
Current Conditions -  °F | °C
As of 3:35 AM on Friday 31 Oct 2014 (Local Time) from KJWG Reporting Station
Clear Clear  
Wind Chill: 51°   Ceiling: Unl
Heat Index: 51°   Visibility: 10mi
Dew Point: 39°   Wind: 6mph
Humidity: 63%   Direction: 330°NNW
Pressure: 30.34"   Gusts: NA
Location:  36.22°N, 98.92°W
Report Text: KJWG 310835Z AUTO 33005KT 10SM CLR 11/04 A3034 RMK AO2 T01050038
Loading
Personal Weather Stations






























Interactive Weather Map
Tropical Storm Tracking
New forecast layout! Learn more

10-Day Weather Forecast

Advertisements
Track Severe Weather on mobile